sensor_id;sensor_type;location;lat;lon;timestamp;temperature;humidity
16301;DHT22;8258;51.020;4.248;2022-12-18T00:00:43;-5.10;99.90
16301;DHT22;8258;51.020;4.248;2022-12-18T00:03:10;-5.20;99.90
16301;DHT22;8258;51.020;4.248;2022-12-18T00:05:46;-5.20;99.90
16301;DHT22;8258;51.020;4.248;2022-12-18T00:08:13;-5.20;99.90
16301;DHT22;8258;51.020;4.248;2022-12-18T00:10:40;-5.20;99.90
16301;DHT22;8258;51.020;4.248;2022-12-18T00:13:07;-5.20;99.90
16301;DHT22;8258;51.020;4.248;2022-12-18T00:15:34;-5.20;99.90
16301;DHT22;8258;51.020;4.248;2022-12-18T00:18:01;-5.20;99.90
16301;DHT22;8258;51.020;4.248;2022-12-18T00:20:28;-5.30;99.90
16301;DHT22;8258;51.020;4.248;2022-12-18T00:22:56;-5.20;99.90
16301;DHT22;8258;51.020;4.248;2022-12-18T00:25:23;-5.20;99.90
16301;DHT22;8258;51.020;4.248;2022-12-18T00:27:50;-5.20;99.90
16301;DHT22;8258;51.020;4.248;2022-12-18T00:30:17;-5.20;99.90
16301;DHT22;8258;51.020;4.248;2022-12-18T00:32:47;-5.30;99.90
16301;DHT22;8258;51.020;4.248;2022-12-18T00:35:14;-5.40;99.90
16301;DHT22;8258;51.020;4.248;2022-12-18T00:37:41;-5.50;99.90
16301;DHT22;8258;51.020;4.248;2022-12-18T00:40:11;-5.60;99.90
16301;DHT22;8258;51.020;4.248;2022-12-18T00:42:38;-5.60;99.90
16301;DHT22;8258;51.020;4.248;2022-12-18T00:45:23;-5.60;99.90
16301;DHT22;8258;51.020;4.248;2022-12-18T00:47:50;-5.60;99.90
16301;DHT22;8258;51.020;4.248;2022-12-18T00:50:17;-5.60;99.90
16301;DHT22;8258;51.020;4.248;2022-12-18T00:52:44;-5.60;99.90
16301;DHT22;8258;51.020;4.248;2022-12-18T00:55:13;-5.60;99.90
16301;DHT22;8258;51.020;4.248;2022-12-18T00:57:40;-5.60;99.90
16301;DHT22;8258;51.020;4.248;2022-12-18T01:00:10;-5.60;99.90
16301;DHT22;8258;51.020;4.248;2022-12-18T01:02:37;-5.60;99.90
16301;DHT22;8258;51.020;4.248;2022-12-18T01:05:04;-5.70;99.90
16301;DHT22;8258;51.020;4.248;2022-12-18T01:07:31;-5.70;99.90
16301;DHT22;8258;51.020;4.248;2022-12-18T01:09:58;-5.70;99.90
16301;DHT22;8258;51.020;4.248;2022-12-18T01:12:27;-5.70;99.90
16301;DHT22;8258;51.020;4.248;2022-12-18T01:14:53;-5.80;99.90
16301;DHT22;8258;51.020;4.248;2022-12-18T01:17:21;-5.70;99.90
16301;DHT22;8258;51.020;4.248;2022-12-18T01:19:48;-5.80;99.90
16301;DHT22;8258;51.020;4.248;2022-12-18T01:22:15;-5.80;99.90
16301;DHT22;8258;51.020;4.248;2022-12-18T01:24:42;-5.80;99.90
16301;DHT22;8258;51.020;4.248;2022-12-18T01:27:09;-5.80;99.90
16301;DHT22;8258;51.020;4.248;2022-12-18T01:29:37;-5.80;99.90
16301;DHT22;8258;51.020;4.248;2022-12-18T01:32:04;-5.90;99.90
16301;DHT22;8258;51.020;4.248;2022-12-18T01:34:31;-5.80;99.90
16301;DHT22;8258;51.020;4.248;2022-12-18T01:37:02;-5.80;99.90
16301;DHT22;8258;51.020;4.248;2022-12-18T01:39:29;-5.90;99.90
16301;DHT22;8258;51.020;4.248;2022-12-18T01:41:57;-5.90;99.90
16301;DHT22;8258;51.020;4.248;2022-12-18T01:45:00;-5.90;99.90
16301;DHT22;8258;51.020;4.248;2022-12-18T01:47:31;-5.80;99.90
16301;DHT22;8258;51.020;4.248;2022-12-18T01:50:02;-5.80;99.90
16301;DHT22;8258;51.020;4.248;2022-12-18T01:52:32;-5.80;99.90
16301;DHT22;8258;51.020;4.248;2022-12-18T01:55:00;-5.80;99.90
16301;DHT22;8258;51.020;4.248;2022-12-18T01:57:28;-5.80;99.90
16301;DHT22;8258;51.020;4.248;2022-12-18T02:00:01;-5.80;99.90
16301;DHT22;8258;51.020;4.248;2022-12-18T02:02:28;-5.80;99.90
16301;DHT22;8258;51.020;4.248;2022-12-18T02:04:56;-5.90;99.90
16301;DHT22;8258;51.020;4.248;2022-12-18T02:07:29;-6.00;99.90
16301;DHT22;8258;51.020;4.248;2022-12-18T02:10:00;-5.90;99.90
16301;DHT22;8258;51.020;4.248;2022-12-18T02:12:33;-5.90;99.90
16301;DHT22;8258;51.020;4.248;2022-12-18T02:15:09;-5.90;99.90
16301;DHT22;8258;51.020;4.248;2022-12-18T02:17:43;-6.00;99.90
16301;DHT22;8258;51.020;4.248;2022-12-18T02:20:16;-6.00;99.90
16301;DHT22;8258;51.020;4.248;2022-12-18T02:22:55;-6.10;99.90
16301;DHT22;8258;51.020;4.248;2022-12-18T02:25:34;-6.10;99.90
16301;DHT22;8258;51.020;4.248;2022-12-18T02:28:08;-6.10;99.90
16301;DHT22;8258;51.020;4.248;2022-12-18T02:30:37;-6.20;99.90
16301;DHT22;8258;51.020;4.248;2022-12-18T02:33:07;-6.20;99.90
16301;DHT22;8258;51.020;4.248;2022-12-18T02:35:36;-6.20;99.90
16301;DHT22;8258;51.020;4.248;2022-12-18T02:38:04;-6.20;99.90
16301;DHT22;8258;51.020;4.248;2022-12-18T02:40:32;-6.30;99.90
16301;DHT22;8258;51.020;4.248;2022-12-18T02:43:03;-6.30;99.90
16301;DHT22;8258;51.020;4.248;2022-12-18T02:45:34;-6.30;99.90
16301;DHT22;8258;51.020;4.248;2022-12-18T02:48:01;-6.20;99.90
16301;DHT22;8258;51.020;4.248;2022-12-18T02:50:33;-6.20;99.90
16301;DHT22;8258;51.020;4.248;2022-12-18T02:53:08;-6.20;99.90
16301;DHT22;8258;51.020;4.248;2022-12-18T02:55:48;-6.30;99.90
16301;DHT22;8258;51.020;4.248;2022-12-18T02:58:20;-6.30;99.90
16301;DHT22;8258;51.020;4.248;2022-12-18T03:00:56;-6.30;99.90
16301;DHT22;8258;51.020;4.248;2022-12-18T03:03:26;-6.40;99.90
16301;DHT22;8258;51.020;4.248;2022-12-18T03:05:59;-6.40;99.90
16301;DHT22;8258;51.020;4.248;2022-12-18T03:08:29;-6.30;99.90
16301;DHT22;8258;51.020;4.248;2022-12-18T03:10:59;-6.30;99.90
16301;DHT22;8258;51.020;4.248;2022-12-18T03:13:31;-6.40;99.90
16301;DHT22;8258;51.020;4.248;2022-12-18T03:16:02;-6.30;99.90
16301;DHT22;8258;51.020;4.248;2022-12-18T03:18:33;-6.30;99.90
16301;DHT22;8258;51.020;4.248;2022-12-18T03:21:05;-6.30;99.90
16301;DHT22;8258;51.020;4.248;2022-12-18T03:23:36;-6.30;99.90
16301;DHT22;8258;51.020;4.248;2022-12-18T03:26:06;-6.30;99.90
16301;DHT22;8258;51.020;4.248;2022-12-18T03:28:38;-6.20;99.90
16301;DHT22;8258;51.020;4.248;2022-12-18T03:31:09;-6.20;99.90
16301;DHT22;8258;51.020;4.248;2022-12-18T03:33:39;-6.30;99.90
16301;DHT22;8258;51.020;4.248;2022-12-18T03:36:08;-6.30;99.90
16301;DHT22;8258;51.020;4.248;2022-12-18T03:38:35;-6.30;99.90
16301;DHT22;8258;51.020;4.248;2022-12-18T03:41:07;-6.30;99.90
16301;DHT22;8258;51.020;4.248;2022-12-18T03:43:45;-6.40;99.90
16301;DHT22;8258;51.020;4.248;2022-12-18T03:46:24;-6.50;99.90
16301;DHT22;8258;51.020;4.248;2022-12-18T03:48:58;-6.50;99.90
16301;DHT22;8258;51.020;4.248;2022-12-18T03:51:31;-6.50;99.90
16301;DHT22;8258;51.020;4.248;2022-12-18T03:54:03;-6.50;99.90
16301;DHT22;8258;51.020;4.248;2022-12-18T03:56:33;-6.50;99.90
16301;DHT22;8258;51.020;4.248;2022-12-18T03:59:03;-6.50;99.90
16301;DHT22;8258;51.020;4.248;2022-12-18T04:01:34;-6.60;99.90
16301;DHT22;8258;51.020;4.248;2022-12-18T04:04:03;-6.50;99.90
16301;DHT22;8258;51.020;4.248;2022-12-18T04:06:32;-6.50;99.90
16301;DHT22;8258;51.020;4.248;2022-12-18T04:08:59;-6.50;99.90
16301;DHT22;8258;51.020;4.248;2022-12-18T04:11:26;-6.50;99.90
16301;DHT22;8258;51.020;4.248;2022-12-18T04:13:55;-6.50;99.90
16301;DHT22;8258;51.020;4.248;2022-12-18T04:16:23;-6.50;99.90
16301;DHT22;8258;51.020;4.248;2022-12-18T04:18:51;-6.50;99.90
16301;DHT22;8258;51.020;4.248;2022-12-18T04:21:18;-6.40;99.90
16301;DHT22;8258;51.020;4.248;2022-12-18T04:23:45;-6.30;99.90
16301;DHT22;8258;51.020;4.248;2022-12-18T04:26:12;-6.40;99.90
16301;DHT22;8258;51.020;4.248;2022-12-18T04:28:39;-6.50;99.90
16301;DHT22;8258;51.020;4.248;2022-12-18T04:31:06;-6.50;99.90
16301;DHT22;8258;51.020;4.248;2022-12-18T04:33:33;-6.50;99.90
16301;DHT22;8258;51.020;4.248;2022-12-18T04:36:02;-6.60;99.90
16301;DHT22;8258;51.020;4.248;2022-12-18T04:38:28;-6.70;99.90
16301;DHT22;8258;51.020;4.248;2022-12-18T04:40:55;-6.70;99.90
16301;DHT22;8258;51.020;4.248;2022-12-18T04:43:22;-6.80;99.90
16301;DHT22;8258;51.020;4.248;2022-12-18T04:45:49;-6.80;99.90
16301;DHT22;8258;51.020;4.248;2022-12-18T04:48:16;-6.80;99.90
16301;DHT22;8258;51.020;4.248;2022-12-18T04:50:43;-6.70;99.90
16301;DHT22;8258;51.020;4.248;2022-12-18T04:53:11;-6.60;99.90
16301;DHT22;8258;51.020;4.248;2022-12-18T04:55:38;-6.70;99.90
16301;DHT22;8258;51.020;4.248;2022-12-18T04:58:05;-6.60;99.90
16301;DHT22;8258;51.020;4.248;2022-12-18T05:00:32;-6.60;99.90
16301;DHT22;8258;51.020;4.248;2022-12-18T05:03:00;-6.50;99.90
16301;DHT22;8258;51.020;4.248;2022-12-18T05:05:27;-6.60;99.90
16301;DHT22;8258;51.020;4.248;2022-12-18T05:07:54;-6.60;99.90
16301;DHT22;8258;51.020;4.248;2022-12-18T05:10:22;-6.60;99.90
16301;DHT22;8258;51.020;4.248;2022-12-18T05:12:49;-6.60;99.90
16301;DHT22;8258;51.020;4.248;2022-12-18T05:15:27;-6.60;99.90
16301;DHT22;8258;51.020;4.248;2022-12-18T05:17:54;-6.70;99.90
16301;DHT22;8258;51.020;4.248;2022-12-18T05:20:22;-6.80;99.90
16301;DHT22;8258;51.020;4.248;2022-12-18T05:22:49;-6.90;99.90
16301;DHT22;8258;51.020;4.248;2022-12-18T05:25:16;-6.90;99.90
16301;DHT22;8258;51.020;4.248;2022-12-18T05:27:44;-6.90;99.90
16301;DHT22;8258;51.020;4.248;2022-12-18T05:30:12;-6.90;99.90
16301;DHT22;8258;51.020;4.248;2022-12-18T05:32:40;-7.00;99.90
16301;DHT22;8258;51.020;4.248;2022-12-18T05:35:08;-7.00;99.90
16301;DHT22;8258;51.020;4.248;2022-12-18T05:37:36;-7.00;99.90
16301;DHT22;8258;51.020;4.248;2022-12-18T05:40:04;-7.00;99.90
16301;DHT22;8258;51.020;4.248;2022-12-18T05:42:31;-7.00;99.90
16301;DHT22;8258;51.020;4.248;2022-12-18T05:44:59;-6.90;99.90
16301;DHT22;8258;51.020;4.248;2022-12-18T05:47:27;-6.90;99.90
16301;DHT22;8258;51.020;4.248;2022-12-18T05:49:55;-6.90;99.90
16301;DHT22;8258;51.020;4.248;2022-12-18T05:52:22;-6.90;99.90
16301;DHT22;8258;51.020;4.248;2022-12-18T05:54:49;-6.80;99.90
16301;DHT22;8258;51.020;4.248;2022-12-18T05:57:16;-6.80;99.90
16301;DHT22;8258;51.020;4.248;2022-12-18T05:59:43;-6.70;99.90
16301;DHT22;8258;51.020;4.248;2022-12-18T06:02:11;-6.70;99.90
16301;DHT22;8258;51.020;4.248;2022-12-18T06:04:38;-6.70;99.90
16301;DHT22;8258;51.020;4.248;2022-12-18T06:07:05;-6.70;99.90
16301;DHT22;8258;51.020;4.248;2022-12-18T06:09:32;-6.60;99.90
16301;DHT22;8258;51.020;4.248;2022-12-18T06:11:58;-6.70;99.90
16301;DHT22;8258;51.020;4.248;2022-12-18T06:14:26;-6.70;99.90
16301;DHT22;8258;51.020;4.248;2022-12-18T06:16:53;-6.60;99.90
16301;DHT22;8258;51.020;4.248;2022-12-18T06:19:21;-6.60;99.90
16301;DHT22;8258;51.020;4.248;2022-12-18T06:21:49;-6.60;99.90
16301;DHT22;8258;51.020;4.248;2022-12-18T06:24:16;-6.60;99.90
16301;DHT22;8258;51.020;4.248;2022-12-18T06:26:43;-6.60;99.90
16301;DHT22;8258;51.020;4.248;2022-12-18T06:29:10;-6.70;99.90
16301;DHT22;8258;51.020;4.248;2022-12-18T06:31:37;-6.70;99.90
16301;DHT22;8258;51.020;4.248;2022-12-18T06:34:04;-6.60;99.90
16301;DHT22;8258;51.020;4.248;2022-12-18T06:36:32;-6.50;99.90
16301;DHT22;8258;51.020;4.248;2022-12-18T06:38:59;-6.50;99.90
16301;DHT22;8258;51.020;4.248;2022-12-18T06:41:26;-6.50;99.90
16301;DHT22;8258;51.020;4.248;2022-12-18T06:43:53;-6.60;99.90
16301;DHT22;8258;51.020;4.248;2022-12-18T06:46:20;-6.60;99.90
16301;DHT22;8258;51.020;4.248;2022-12-18T06:48:48;-6.60;99.90
16301;DHT22;8258;51.020;4.248;2022-12-18T06:51:17;-6.60;99.90
16301;DHT22;8258;51.020;4.248;2022-12-18T06:53:45;-6.80;99.90
16301;DHT22;8258;51.020;4.248;2022-12-18T06:56:12;-6.80;99.90
16301;DHT22;8258;51.020;4.248;2022-12-18T06:58:40;-6.80;99.90
16301;DHT22;8258;51.020;4.248;2022-12-18T07:01:09;-6.80;99.90
16301;DHT22;8258;51.020;4.248;2022-12-18T07:03:36;-6.70;99.90
16301;DHT22;8258;51.020;4.248;2022-12-18T07:06:04;-6.80;99.90
16301;DHT22;8258;51.020;4.248;2022-12-18T07:08:32;-6.80;99.90
16301;DHT22;8258;51.020;4.248;2022-12-18T07:11:03;-6.80;99.90
16301;DHT22;8258;51.020;4.248;2022-12-18T07:13:31;-6.80;99.90
16301;DHT22;8258;51.020;4.248;2022-12-18T07:16:05;-6.80;99.90
16301;DHT22;8258;51.020;4.248;2022-12-18T07:18:31;-6.80;99.90
16301;DHT22;8258;51.020;4.248;2022-12-18T07:21:02;-6.70;99.90
16301;DHT22;8258;51.020;4.248;2022-12-18T07:23:31;-6.80;99.90
16301;DHT22;8258;51.020;4.248;2022-12-18T07:26:02;-6.70;99.90
16301;DHT22;8258;51.020;4.248;2022-12-18T07:28:29;-6.70;99.90
16301;DHT22;8258;51.020;4.248;2022-12-18T07:30:56;-6.70;99.90
16301;DHT22;8258;51.020;4.248;2022-12-18T07:33:24;-6.60;99.90
16301;DHT22;8258;51.020;4.248;2022-12-18T07:35:51;-6.70;99.90
16301;DHT22;8258;51.020;4.248;2022-12-18T07:38:18;-6.70;99.90
16301;DHT22;8258;51.020;4.248;2022-12-18T07:40:45;-6.70;99.90
16301;DHT22;8258;51.020;4.248;2022-12-18T07:43:13;-6.70;99.90
16301;DHT22;8258;51.020;4.248;2022-12-18T07:45:40;-6.60;99.90
16301;DHT22;8258;51.020;4.248;2022-12-18T07:48:07;-6.70;99.90
16301;DHT22;8258;51.020;4.248;2022-12-18T07:50:34;-6.60;99.90
16301;DHT22;8258;51.020;4.248;2022-12-18T07:53:01;-6.60;99.90
16301;DHT22;8258;51.020;4.248;2022-12-18T07:55:29;-6.50;99.90
16301;DHT22;8258;51.020;4.248;2022-12-18T07:57:56;-6.50;99.90
16301;DHT22;8258;51.020;4.248;2022-12-18T08:00:24;-6.50;99.90
16301;DHT22;8258;51.020;4.248;2022-12-18T08:02:51;-6.40;99.90
16301;DHT22;8258;51.020;4.248;2022-12-18T08:05:18;-6.30;99.90
16301;DHT22;8258;51.020;4.248;2022-12-18T08:07:46;-6.30;99.90
16301;DHT22;8258;51.020;4.248;2022-12-18T08:10:13;-6.20;99.90
16301;DHT22;8258;51.020;4.248;2022-12-18T08:12:40;-6.20;99.90
16301;DHT22;8258;51.020;4.248;2022-12-18T08:15:07;-6.00;99.90
16301;DHT22;8258;51.020;4.248;2022-12-18T08:17:36;-5.80;99.90
16301;DHT22;8258;51.020;4.248;2022-12-18T08:20:03;-5.40;99.90
16301;DHT22;8258;51.020;4.248;2022-12-18T08:22:30;-5.00;99.90
16301;DHT22;8258;51.020;4.248;2022-12-18T08:24:57;-4.90;99.90
16301;DHT22;8258;51.020;4.248;2022-12-18T08:27:24;-4.90;99.90
16301;DHT22;8258;51.020;4.248;2022-12-18T08:29:50;-4.80;99.90
16301;DHT22;8258;51.020;4.248;2022-12-18T08:32:17;-4.70;99.90
16301;DHT22;8258;51.020;4.248;2022-12-18T08:34:46;-4.60;99.90
16301;DHT22;8258;51.020;4.248;2022-12-18T08:37:12;-4.40;99.90
16301;DHT22;8258;51.020;4.248;2022-12-18T08:39:39;-4.30;99.90
16301;DHT22;8258;51.020;4.248;2022-12-18T08:42:06;-4.60;99.90
16301;DHT22;8258;51.020;4.248;2022-12-18T08:44:51;-4.70;99.90
16301;DHT22;8258;51.020;4.248;2022-12-18T08:47:18;-4.90;99.90
16301;DHT22;8258;51.020;4.248;2022-12-18T08:49:46;-4.90;99.90
16301;DHT22;8258;51.020;4.248;2022-12-18T08:52:14;-4.90;99.90
16301;DHT22;8258;51.020;4.248;2022-12-18T08:54:41;-4.90;99.90
16301;DHT22;8258;51.020;4.248;2022-12-18T08:57:08;-5.00;99.90
16301;DHT22;8258;51.020;4.248;2022-12-18T08:59:35;-4.90;99.90
16301;DHT22;8258;51.020;4.248;2022-12-18T09:02:02;-4.80;99.90
16301;DHT22;8258;51.020;4.248;2022-12-18T09:04:28;-4.70;99.90
16301;DHT22;8258;51.020;4.248;2022-12-18T09:06:57;-4.70;99.90
16301;DHT22;8258;51.020;4.248;2022-12-18T09:09:24;-4.70;99.90
16301;DHT22;8258;51.020;4.248;2022-12-18T09:11:50;-4.60;99.90
16301;DHT22;8258;51.020;4.248;2022-12-18T09:14:19;-4.60;99.90
16301;DHT22;8258;51.020;4.248;2022-12-18T09:16:46;-4.50;99.90
16301;DHT22;8258;51.020;4.248;2022-12-18T09:19:13;-4.50;99.90
16301;DHT22;8258;51.020;4.248;2022-12-18T09:21:40;-4.60;99.90
16301;DHT22;8258;51.020;4.248;2022-12-18T09:24:12;-4.50;99.90
16301;DHT22;8258;51.020;4.248;2022-12-18T09:26:39;-4.40;99.90
16301;DHT22;8258;51.020;4.248;2022-12-18T09:29:06;-4.40;99.90
16301;DHT22;8258;51.020;4.248;2022-12-18T09:31:33;-4.40;99.90
16301;DHT22;8258;51.020;4.248;2022-12-18T09:34:00;-4.30;99.90
16301;DHT22;8258;51.020;4.248;2022-12-18T09:36:27;-4.20;99.90
16301;DHT22;8258;51.020;4.248;2022-12-18T09:38:54;-4.10;99.90
16301;DHT22;8258;51.020;4.248;2022-12-18T09:41:37;-4.00;99.90
16301;DHT22;8258;51.020;4.248;2022-12-18T09:44:12;-3.90;99.90
16301;DHT22;8258;51.020;4.248;2022-12-18T09:46:44;-3.80;99.90
16301;DHT22;8258;51.020;4.248;2022-12-18T09:49:14;-3.80;99.90
16301;DHT22;8258;51.020;4.248;2022-12-18T09:51:44;-3.80;99.90
16301;DHT22;8258;51.020;4.248;2022-12-18T09:54:15;-3.80;99.90
16301;DHT22;8258;51.020;4.248;2022-12-18T09:56:44;-3.70;99.90
16301;DHT22;8258;51.020;4.248;2022-12-18T09:59:18;-3.60;99.90
16301;DHT22;8258;51.020;4.248;2022-12-18T10:01:46;-3.60;99.90
16301;DHT22;8258;51.020;4.248;2022-12-18T10:04:13;-3.50;99.90
16301;DHT22;8258;51.020;4.248;2022-12-18T10:06:45;-3.50;99.90
16301;DHT22;8258;51.020;4.248;2022-12-18T10:09:22;-3.40;99.90
16301;DHT22;8258;51.020;4.248;2022-12-18T10:12:01;-3.40;99.90
16301;DHT22;8258;51.020;4.248;2022-12-18T10:14:35;-3.30;99.90
16301;DHT22;8258;51.020;4.248;2022-12-18T10:17:20;-3.30;99.90
16301;DHT22;8258;51.020;4.248;2022-12-18T10:19:53;-3.20;99.90
16301;DHT22;8258;51.020;4.248;2022-12-18T10:22:39;-3.10;99.90
16301;DHT22;8258;51.020;4.248;2022-12-18T10:25:18;-3.10;99.90
16301;DHT22;8258;51.020;4.248;2022-12-18T10:27:48;-3.10;99.90
16301;DHT22;8258;51.020;4.248;2022-12-18T10:30:19;-3.10;99.90
16301;DHT22;8258;51.020;4.248;2022-12-18T10:32:46;-3.10;99.90
16301;DHT22;8258;51.020;4.248;2022-12-18T10:35:18;-3.00;99.90
16301;DHT22;8258;51.020;4.248;2022-12-18T10:38:20;-3.00;99.90
16301;DHT22;8258;51.020;4.248;2022-12-18T10:40:50;-2.90;99.90
16301;DHT22;8258;51.020;4.248;2022-12-18T10:43:23;-2.90;99.90
16301;DHT22;8258;51.020;4.248;2022-12-18T10:46:20;-2.80;99.90
16301;DHT22;8258;51.020;4.248;2022-12-18T10:48:53;-2.60;99.90
16301;DHT22;8258;51.020;4.248;2022-12-18T10:51:22;-2.50;99.90
16301;DHT22;8258;51.020;4.248;2022-12-18T10:53:56;-2.30;99.90
16301;DHT22;8258;51.020;4.248;2022-12-18T10:56:26;-2.20;99.90
16301;DHT22;8258;51.020;4.248;2022-12-18T10:58:59;-2.10;99.90
16301;DHT22;8258;51.020;4.248;2022-12-18T11:01:27;-2.00;99.90
16301;DHT22;8258;51.020;4.248;2022-12-18T11:04:07;-1.90;99.90
16301;DHT22;8258;51.020;4.248;2022-12-18T11:06:53;-1.90;99.90
16301;DHT22;8258;51.020;4.248;2022-12-18T11:09:22;-1.80;99.90
16301;DHT22;8258;51.020;4.248;2022-12-18T11:11:49;-1.70;99.90
16301;DHT22;8258;51.020;4.248;2022-12-18T11:14:22;-1.70;99.90
16301;DHT22;8258;51.020;4.248;2022-12-18T11:16:51;-1.60;99.90
16301;DHT22;8258;51.020;4.248;2022-12-18T11:19:29;-1.60;99.90
16301;DHT22;8258;51.020;4.248;2022-12-18T11:21:56;-1.50;99.90
16301;DHT22;8258;51.020;4.248;2022-12-18T11:24:27;-1.60;99.90
16301;DHT22;8258;51.020;4.248;2022-12-18T11:26:56;-1.70;99.90
16301;DHT22;8258;51.020;4.248;2022-12-18T11:29:31;-1.70;99.90
16301;DHT22;8258;51.020;4.248;2022-12-18T11:35:11;-1.60;99.90
16301;DHT22;8258;51.020;4.248;2022-12-18T11:37:40;-1.60;99.90
16301;DHT22;8258;51.020;4.248;2022-12-18T11:40:14;-1.60;99.90
16301;DHT22;8258;51.020;4.248;2022-12-18T11:42:47;-1.50;99.90
16301;DHT22;8258;51.020;4.248;2022-12-18T11:45:28;-1.40;99.90
16301;DHT22;8258;51.020;4.248;2022-12-18T11:48:03;-1.20;99.90
16301;DHT22;8258;51.020;4.248;2022-12-18T11:50:38;-1.20;99.90
16301;DHT22;8258;51.020;4.248;2022-12-18T11:53:10;-1.20;99.90
16301;DHT22;8258;51.020;4.248;2022-12-18T11:55:45;-1.20;99.90
16301;DHT22;8258;51.020;4.248;2022-12-18T11:58:24;-1.30;99.90
16301;DHT22;8258;51.020;4.248;2022-12-18T12:01:02;-1.40;99.90
16301;DHT22;8258;51.020;4.248;2022-12-18T12:04:03;-1.40;99.90
16301;DHT22;8258;51.020;4.248;2022-12-18T12:06:40;-1.40;99.90
16301;DHT22;8258;51.020;4.248;2022-12-18T12:09:19;-1.30;99.90
16301;DHT22;8258;51.020;4.248;2022-12-18T12:11:57;-1.20;99.90
16301;DHT22;8258;51.020;4.248;2022-12-18T12:14:36;-1.20;99.90
16301;DHT22;8258;51.020;4.248;2022-12-18T12:17:14;-1.10;99.90
16301;DHT22;8258;51.020;4.248;2022-12-18T12:19:51;-1.10;99.90
16301;DHT22;8258;51.020;4.248;2022-12-18T12:22:26;-1.10;99.90
16301;DHT22;8258;51.020;4.248;2022-12-18T12:25:09;-1.00;99.90
16301;DHT22;8258;51.020;4.248;2022-12-18T12:27:44;-0.90;99.90
16301;DHT22;8258;51.020;4.248;2022-12-18T12:30:18;-0.70;99.90
16301;DHT22;8258;51.020;4.248;2022-12-18T12:33:04;-0.60;99.90
16301;DHT22;8258;51.020;4.248;2022-12-18T12:35:42;-0.60;99.90
16301;DHT22;8258;51.020;4.248;2022-12-18T12:38:13;-0.60;99.90
16301;DHT22;8258;51.020;4.248;2022-12-18T12:40:46;-0.70;99.90
16301;DHT22;8258;51.020;4.248;2022-12-18T12:43:33;-0.70;99.90
16301;DHT22;8258;51.020;4.248;2022-12-18T12:46:04;-0.70;99.90
16301;DHT22;8258;51.020;4.248;2022-12-18T12:48:40;-0.70;99.90
16301;DHT22;8258;51.020;4.248;2022-12-18T12:51:12;-0.80;99.90
16301;DHT22;8258;51.020;4.248;2022-12-18T12:53:41;-0.80;99.90
16301;DHT22;8258;51.020;4.248;2022-12-18T12:56:10;-0.70;99.90
16301;DHT22;8258;51.020;4.248;2022-12-18T12:58:45;-0.50;99.90
16301;DHT22;8258;51.020;4.248;2022-12-18T13:01:18;-0.40;99.90
16301;DHT22;8258;51.020;4.248;2022-12-18T13:03:59;-0.30;99.90
16301;DHT22;8258;51.020;4.248;2022-12-18T13:06:40;-0.30;99.90
16301;DHT22;8258;51.020;4.248;2022-12-18T13:09:09;-0.30;99.90
16301;DHT22;8258;51.020;4.248;2022-12-18T13:11:38;-0.30;99.90
16301;DHT22;8258;51.020;4.248;2022-12-18T13:14:27;-0.20;99.90
16301;DHT22;8258;51.020;4.248;2022-12-18T13:17:14;-0.10;99.90
16301;DHT22;8258;51.020;4.248;2022-12-18T13:19:43;0.10;99.90
16301;DHT22;8258;51.020;4.248;2022-12-18T13:22:21;0.20;99.90
16301;DHT22;8258;51.020;4.248;2022-12-18T13:24:49;0.00;99.90
16301;DHT22;8258;51.020;4.248;2022-12-18T13:27:47;-0.10;99.90
16301;DHT22;8258;51.020;4.248;2022-12-18T13:30:50;-0.20;99.90
16301;DHT22;8258;51.020;4.248;2022-12-18T13:33:47;-0.20;99.90
16301;DHT22;8258;51.020;4.248;2022-12-18T13:36:33;-0.20;99.90
16301;DHT22;8258;51.020;4.248;2022-12-18T13:39:30;-0.20;99.90
16301;DHT22;8258;51.020;4.248;2022-12-18T13:45:39;-0.20;99.90
16301;DHT22;8258;51.020;4.248;2022-12-18T13:48:18;0.00;99.90
16301;DHT22;8258;51.020;4.248;2022-12-18T13:50:53;0.10;99.90
16301;DHT22;8258;51.020;4.248;2022-12-18T13:53:25;0.30;99.90
16301;DHT22;8258;51.020;4.248;2022-12-18T13:55:53;0.40;99.90
16301;DHT22;8258;51.020;4.248;2022-12-18T13:58:20;0.50;99.90
16301;DHT22;8258;51.020;4.248;2022-12-18T14:00:47;0.50;99.90
16301;DHT22;8258;51.020;4.248;2022-12-18T14:03:20;0.50;99.90
16301;DHT22;8258;51.020;4.248;2022-12-18T14:05:56;0.60;99.90
16301;DHT22;8258;51.020;4.248;2022-12-18T14:08:32;0.60;99.90
16301;DHT22;8258;51.020;4.248;2022-12-18T14:11:00;0.50;99.90
16301;DHT22;8258;51.020;4.248;2022-12-18T14:13:31;0.50;99.90
16301;DHT22;8258;51.020;4.248;2022-12-18T14:16:00;0.50;99.90
16301;DHT22;8258;51.020;4.248;2022-12-18T14:18:33;0.60;99.90
16301;DHT22;8258;51.020;4.248;2022-12-18T14:21:03;0.60;99.90
16301;DHT22;8258;51.020;4.248;2022-12-18T14:23:34;0.50;99.90
16301;DHT22;8258;51.020;4.248;2022-12-18T14:26:02;0.50;99.90
16301;DHT22;8258;51.020;4.248;2022-12-18T14:28:30;0.50;99.90
16301;DHT22;8258;51.020;4.248;2022-12-18T14:30:57;0.40;99.90
16301;DHT22;8258;51.020;4.248;2022-12-18T14:33:25;0.50;99.90
16301;DHT22;8258;51.020;4.248;2022-12-18T14:35:55;0.50;99.90
16301;DHT22;8258;51.020;4.248;2022-12-18T14:38:26;0.50;99.90
16301;DHT22;8258;51.020;4.248;2022-12-18T14:40:57;0.50;99.90
16301;DHT22;8258;51.020;4.248;2022-12-18T14:43:25;0.50;99.90
16301;DHT22;8258;51.020;4.248;2022-12-18T14:45:53;0.40;99.90
16301;DHT22;8258;51.020;4.248;2022-12-18T14:48:32;0.40;99.90
16301;DHT22;8258;51.020;4.248;2022-12-18T14:51:01;0.40;99.90
16301;DHT22;8258;51.020;4.248;2022-12-18T14:53:34;0.40;99.90
16301;DHT22;8258;51.020;4.248;2022-12-18T14:56:10;0.40;99.90
16301;DHT22;8258;51.020;4.248;2022-12-18T14:58:45;0.40;99.90
16301;DHT22;8258;51.020;4.248;2022-12-18T15:01:19;0.40;99.90
16301;DHT22;8258;51.020;4.248;2022-12-18T15:03:46;0.40;99.90
16301;DHT22;8258;51.020;4.248;2022-12-18T15:06:17;0.40;99.90
16301;DHT22;8258;51.020;4.248;2022-12-18T15:08:45;0.40;99.90
16301;DHT22;8258;51.020;4.248;2022-12-18T15:11:42;0.40;99.90
16301;DHT22;8258;51.020;4.248;2022-12-18T15:14:38;0.40;99.90
16301;DHT22;8258;51.020;4.248;2022-12-18T15:17:14;0.40;99.90
16301;DHT22;8258;51.020;4.248;2022-12-18T15:19:43;0.40;99.90
16301;DHT22;8258;51.020;4.248;2022-12-18T15:22:23;0.40;99.90
16301;DHT22;8258;51.020;4.248;2022-12-18T15:24:51;0.50;99.90
16301;DHT22;8258;51.020;4.248;2022-12-18T15:27:31;0.50;99.90
16301;DHT22;8258;51.020;4.248;2022-12-18T15:30:11;0.50;99.90
16301;DHT22;8258;51.020;4.248;2022-12-18T15:32:42;0.50;99.90
16301;DHT22;8258;51.020;4.248;2022-12-18T15:35:14;0.50;99.90
16301;DHT22;8258;51.020;4.248;2022-12-18T15:37:42;0.50;99.90
16301;DHT22;8258;51.020;4.248;2022-12-18T15:40:12;0.50;99.90
16301;DHT22;8258;51.020;4.248;2022-12-18T15:42:41;0.50;99.90
16301;DHT22;8258;51.020;4.248;2022-12-18T15:45:26;0.50;99.90
16301;DHT22;8258;51.020;4.248;2022-12-18T15:47:54;0.50;99.90
16301;DHT22;8258;51.020;4.248;2022-12-18T15:50:21;0.60;99.90
16301;DHT22;8258;51.020;4.248;2022-12-18T15:52:49;0.60;99.90
16301;DHT22;8258;51.020;4.248;2022-12-18T15:55:18;0.70;99.90
16301;DHT22;8258;51.020;4.248;2022-12-18T15:58:06;0.70;99.90
16301;DHT22;8258;51.020;4.248;2022-12-18T16:00:34;0.70;99.90
16301;DHT22;8258;51.020;4.248;2022-12-18T16:03:03;0.70;99.90
16301;DHT22;8258;51.020;4.248;2022-12-18T16:05:30;0.70;99.90
16301;DHT22;8258;51.020;4.248;2022-12-18T16:07:57;0.80;99.90
16301;DHT22;8258;51.020;4.248;2022-12-18T16:10:25;0.80;99.90
16301;DHT22;8258;51.020;4.248;2022-12-18T16:12:52;0.80;99.90
16301;DHT22;8258;51.020;4.248;2022-12-18T16:15:21;0.80;99.90
16301;DHT22;8258;51.020;4.248;2022-12-18T16:17:47;0.80;99.90
16301;DHT22;8258;51.020;4.248;2022-12-18T16:20:16;0.80;99.90